sensor_id;sensor_type;location;lat;lon;timestamp;P1;durP1;ratioP1;P2;durP2;ratioP2
39196;SDS011;42889;51.112;13.772;2023-01-30T00:01:12;5.88;;;2.13;;
39196;SDS011;42889;51.112;13.772;2023-01-30T00:03:41;7.53;;;2.83;;
39196;SDS011;42889;51.112;13.772;2023-01-30T00:06:08;7.43;;;2.88;;
39196;SDS011;42889;51.112;13.772;2023-01-30T00:08:35;7.97;;;3.20;;
39196;SDS011;42889;51.112;13.772;2023-01-30T00:11:05;11.30;;;3.97;;
39196;SDS011;42889;51.112;13.772;2023-01-30T00:13:34;11.10;;;4.28;;
39196;SDS011;42889;51.112;13.772;2023-01-30T00:16:01;12.68;;;4.25;;
39196;SDS011;42889;51.112;13.772;2023-01-30T00:18:28;5.43;;;1.92;;
39196;SDS011;42889;51.112;13.772;2023-01-30T00:20:56;15.05;;;4.82;;
39196;SDS011;42889;51.112;13.772;2023-01-30T00:23:23;11.25;;;4.38;;
39196;SDS011;42889;51.112;13.772;2023-01-30T00:25:51;10.68;;;3.80;;
39196;SDS011;42889;51.112;13.772;2023-01-30T00:28:18;11.35;;;4.03;;
39196;SDS011;42889;51.112;13.772;2023-01-30T00:30:47;12.40;;;4.78;;
39196;SDS011;42889;51.112;13.772;2023-01-30T00:33:16;11.00;;;4.03;;
39196;SDS011;42889;51.112;13.772;2023-01-30T00:35:46;7.68;;;3.20;;
39196;SDS011;42889;51.112;13.772;2023-01-30T00:38:14;5.50;;;2.42;;
39196;SDS011;42889;51.112;13.772;2023-01-30T00:40:41;11.23;;;3.47;;
39196;SDS011;42889;51.112;13.772;2023-01-30T00:43:12;9.88;;;3.85;;
39196;SDS011;42889;51.112;13.772;2023-01-30T00:45:59;7.53;;;2.58;;
39196;SDS011;42889;51.112;13.772;2023-01-30T00:48:53;8.75;;;2.63;;
39196;SDS011;42889;51.112;13.772;2023-01-30T00:51:20;10.18;;;3.55;;
39196;SDS011;42889;51.112;13.772;2023-01-30T00:53:47;11.50;;;4.88;;
39196;SDS011;42889;51.112;13.772;2023-01-30T00:56:13;9.27;;;3.75;;
39196;SDS011;42889;51.112;13.772;2023-01-30T00:58:40;9.52;;;3.50;;
39196;SDS011;42889;51.112;13.772;2023-01-30T01:01:09;8.20;;;3.65;;
39196;SDS011;42889;51.112;13.772;2023-01-30T01:03:36;9.65;;;4.28;;
39196;SDS011;42889;51.112;13.772;2023-01-30T01:06:02;13.23;;;4.60;;
39196;SDS011;42889;51.112;13.772;2023-01-30T01:08:29;9.05;;;3.85;;
39196;SDS011;42889;51.112;13.772;2023-01-30T01:10:56;11.07;;;3.90;;
39196;SDS011;42889;51.112;13.772;2023-01-30T01:13:23;8.20;;;3.13;;
39196;SDS011;42889;51.112;13.772;2023-01-30T01:15:50;9.30;;;3.75;;
39196;SDS011;42889;51.112;13.772;2023-01-30T01:18:17;10.57;;;3.92;;
39196;SDS011;42889;51.112;13.772;2023-01-30T01:20:44;9.48;;;3.60;;
39196;SDS011;42889;51.112;13.772;2023-01-30T01:23:11;11.00;;;4.43;;
39196;SDS011;42889;51.112;13.772;2023-01-30T01:25:38;11.63;;;4.32;;
39196;SDS011;42889;51.112;13.772;2023-01-30T01:28:05;11.48;;;4.00;;
39196;SDS011;42889;51.112;13.772;2023-01-30T01:30:31;10.30;;;4.00;;
39196;SDS011;42889;51.112;13.772;2023-01-30T01:32:58;10.73;;;3.78;;
39196;SDS011;42889;51.112;13.772;2023-01-30T01:35:26;10.43;;;3.90;;
39196;SDS011;42889;51.112;13.772;2023-01-30T01:37:53;9.93;;;4.15;;
39196;SDS011;42889;51.112;13.772;2023-01-30T01:40:21;9.35;;;3.97;;
39196;SDS011;42889;51.112;13.772;2023-01-30T01:43:17;7.95;;;3.20;;
39196;SDS011;42889;51.112;13.772;2023-01-30T01:45:45;9.38;;;4.03;;
39196;SDS011;42889;51.112;13.772;2023-01-30T01:48:24;11.27;;;4.28;;
39196;SDS011;42889;51.112;13.772;2023-01-30T01:50:54;10.15;;;4.18;;
39196;SDS011;42889;51.112;13.772;2023-01-30T01:53:25;11.13;;;3.78;;
39196;SDS011;42889;51.112;13.772;2023-01-30T01:55:55;9.82;;;3.90;;
39196;SDS011;42889;51.112;13.772;2023-01-30T01:58:38;11.23;;;4.20;;
39196;SDS011;42889;51.112;13.772;2023-01-30T02:01:20;10.85;;;4.20;;
39196;SDS011;42889;51.112;13.772;2023-01-30T02:03:49;10.05;;;3.65;;
39196;SDS011;42889;51.112;13.772;2023-01-30T02:06:21;11.68;;;4.25;;
39196;SDS011;42889;51.112;13.772;2023-01-30T02:08:52;11.52;;;4.18;;
39196;SDS011;42889;51.112;13.772;2023-01-30T02:11:41;11.07;;;4.45;;
39196;SDS011;42889;51.112;13.772;2023-01-30T02:14:13;9.10;;;3.67;;
39196;SDS011;42889;51.112;13.772;2023-01-30T02:16:41;7.75;;;2.95;;
39196;SDS011;42889;51.112;13.772;2023-01-30T02:22:20;9.82;;;3.85;;
39196;SDS011;42889;51.112;13.772;2023-01-30T02:36:14;8.95;;;3.60;;
39196;SDS011;42889;51.112;13.772;2023-01-30T02:39:00;10.07;;;4.00;;
39196;SDS011;42889;51.112;13.772;2023-01-30T02:47:03;8.38;;;3.58;;
39196;SDS011;42889;51.112;13.772;2023-01-30T02:49:40;7.32;;;2.38;;
39196;SDS011;42889;51.112;13.772;2023-01-30T02:52:13;7.53;;;3.00;;
39196;SDS011;42889;51.112;13.772;2023-01-30T02:54:44;10.88;;;3.88;;
39196;SDS011;42889;51.112;13.772;2023-01-30T02:57:19;12.20;;;4.32;;
39196;SDS011;42889;51.112;13.772;2023-01-30T02:59:54;6.35;;;2.78;;
39196;SDS011;42889;51.112;13.772;2023-01-30T03:02:35;11.95;;;4.75;;
39196;SDS011;42889;51.112;13.772;2023-01-30T03:11:03;12.55;;;4.75;;
39196;SDS011;42889;51.112;13.772;2023-01-30T03:16:10;10.73;;;4.20;;
39196;SDS011;42889;51.112;13.772;2023-01-30T03:18:42;10.50;;;3.92;;
39196;SDS011;42889;51.112;13.772;2023-01-30T03:21:14;9.68;;;3.38;;
39196;SDS011;42889;51.112;13.772;2023-01-30T03:23:42;11.32;;;4.40;;
39196;SDS011;42889;51.112;13.772;2023-01-30T03:26:13;5.65;;;2.38;;
39196;SDS011;42889;51.112;13.772;2023-01-30T03:28:53;8.93;;;3.60;;
39196;SDS011;42889;51.112;13.772;2023-01-30T03:31:20;9.38;;;3.33;;
39196;SDS011;42889;51.112;13.772;2023-01-30T03:33:46;6.28;;;2.60;;
39196;SDS011;42889;51.112;13.772;2023-01-30T03:36:13;9.38;;;3.30;;
39196;SDS011;42889;51.112;13.772;2023-01-30T03:38:40;11.27;;;3.65;;
39196;SDS011;42889;51.112;13.772;2023-01-30T03:41:07;9.25;;;3.65;;
39196;SDS011;42889;51.112;13.772;2023-01-30T03:43:34;12.48;;;4.00;;
39196;SDS011;42889;51.112;13.772;2023-01-30T03:46:03;8.73;;;3.97;;
39196;SDS011;42889;51.112;13.772;2023-01-30T03:48:30;8.73;;;3.17;;
39196;SDS011;42889;51.112;13.772;2023-01-30T03:50:56;5.20;;;2.20;;
39196;SDS011;42889;51.112;13.772;2023-01-30T03:53:23;4.90;;;2.05;;
39196;SDS011;42889;51.112;13.772;2023-01-30T03:55:49;7.68;;;2.08;;
39196;SDS011;42889;51.112;13.772;2023-01-30T03:58:22;7.10;;;1.92;;
39196;SDS011;42889;51.112;13.772;2023-01-30T04:00:49;6.95;;;2.63;;
39196;SDS011;42889;51.112;13.772;2023-01-30T04:03:16;8.85;;;3.42;;
39196;SDS011;42889;51.112;13.772;2023-01-30T04:05:42;5.57;;;1.75;;
39196;SDS011;42889;51.112;13.772;2023-01-30T04:08:09;7.70;;;3.28;;
39196;SDS011;42889;51.112;13.772;2023-01-30T04:10:36;7.70;;;3.13;;
39196;SDS011;42889;51.112;13.772;2023-01-30T04:13:03;7.72;;;2.92;;
39196;SDS011;42889;51.112;13.772;2023-01-30T04:15:31;6.95;;;2.85;;
39196;SDS011;42889;51.112;13.772;2023-01-30T04:18:20;9.35;;;3.35;;
39196;SDS011;42889;51.112;13.772;2023-01-30T04:20:56;5.32;;;2.30;;
39196;SDS011;42889;51.112;13.772;2023-01-30T04:23:30;7.75;;;3.30;;
39196;SDS011;42889;51.112;13.772;2023-01-30T04:25:57;7.82;;;2.88;;
39196;SDS011;42889;51.112;13.772;2023-01-30T04:28:24;8.48;;;2.92;;
39196;SDS011;42889;51.112;13.772;2023-01-30T04:30:52;8.27;;;2.80;;
39196;SDS011;42889;51.112;13.772;2023-01-30T04:33:39;8.88;;;3.55;;
39196;SDS011;42889;51.112;13.772;2023-01-30T04:36:07;12.40;;;3.60;;
39196;SDS011;42889;51.112;13.772;2023-01-30T04:38:35;9.65;;;3.58;;
39196;SDS011;42889;51.112;13.772;2023-01-30T04:41:03;8.05;;;3.25;;
39196;SDS011;42889;51.112;13.772;2023-01-30T04:43:32;7.55;;;2.70;;
39196;SDS011;42889;51.112;13.772;2023-01-30T04:46:22;9.23;;;3.78;;
39196;SDS011;42889;51.112;13.772;2023-01-30T04:48:48;9.40;;;3.92;;
39196;SDS011;42889;51.112;13.772;2023-01-30T04:51:15;10.43;;;3.85;;
39196;SDS011;42889;51.112;13.772;2023-01-30T04:53:42;10.45;;;3.67;;
39196;SDS011;42889;51.112;13.772;2023-01-30T04:56:09;10.27;;;3.90;;
39196;SDS011;42889;51.112;13.772;2023-01-30T04:58:36;8.38;;;3.45;;
39196;SDS011;42889;51.112;13.772;2023-01-30T05:01:22;9.45;;;4.15;;
39196;SDS011;42889;51.112;13.772;2023-01-30T05:03:51;7.90;;;2.95;;
39196;SDS011;42889;51.112;13.772;2023-01-30T05:06:19;7.68;;;2.55;;
39196;SDS011;42889;51.112;13.772;2023-01-30T05:08:47;8.45;;;3.45;;
39196;SDS011;42889;51.112;13.772;2023-01-30T05:11:14;9.15;;;3.63;;
39196;SDS011;42889;51.112;13.772;2023-01-30T05:13:41;5.47;;;2.00;;
39196;SDS011;42889;51.112;13.772;2023-01-30T05:16:09;5.82;;;2.33;;
39196;SDS011;42889;51.112;13.772;2023-01-30T05:18:37;10.27;;;2.72;;
39196;SDS011;42889;51.112;13.772;2023-01-30T05:21:04;8.43;;;2.95;;
39196;SDS011;42889;51.112;13.772;2023-01-30T05:23:32;9.80;;;4.10;;
39196;SDS011;42889;51.112;13.772;2023-01-30T05:25:59;8.27;;;3.45;;
39196;SDS011;42889;51.112;13.772;2023-01-30T05:28:26;10.05;;;4.10;;
39196;SDS011;42889;51.112;13.772;2023-01-30T05:30:59;6.97;;;2.67;;
39196;SDS011;42889;51.112;13.772;2023-01-30T05:33:27;8.50;;;3.20;;
39196;SDS011;42889;51.112;13.772;2023-01-30T05:35:54;8.80;;;3.03;;
39196;SDS011;42889;51.112;13.772;2023-01-30T05:38:24;9.88;;;3.88;;
39196;SDS011;42889;51.112;13.772;2023-01-30T05:40:58;6.75;;;3.08;;
39196;SDS011;42889;51.112;13.772;2023-01-30T05:43:29;10.50;;;4.15;;
39196;SDS011;42889;51.112;13.772;2023-01-30T05:45:57;8.20;;;3.10;;
39196;SDS011;42889;51.112;13.772;2023-01-30T05:48:25;6.15;;;2.38;;
39196;SDS011;42889;51.112;13.772;2023-01-30T05:50:52;6.82;;;2.95;;
39196;SDS011;42889;51.112;13.772;2023-01-30T05:53:22;7.38;;;2.90;;
39196;SDS011;42889;51.112;13.772;2023-01-30T05:55:53;7.65;;;3.25;;
39196;SDS011;42889;51.112;13.772;2023-01-30T05:58:24;9.15;;;3.72;;
39196;SDS011;42889;51.112;13.772;2023-01-30T06:00:51;8.82;;;3.05;;
39196;SDS011;42889;51.112;13.772;2023-01-30T06:03:18;5.95;;;1.95;;
39196;SDS011;42889;51.112;13.772;2023-01-30T06:05:44;8.35;;;2.95;;
39196;SDS011;42889;51.112;13.772;2023-01-30T06:08:11;10.05;;;3.45;;
39196;SDS011;42889;51.112;13.772;2023-01-30T06:10:38;7.50;;;2.83;;
39196;SDS011;42889;51.112;13.772;2023-01-30T06:13:04;6.47;;;2.85;;
39196;SDS011;42889;51.112;13.772;2023-01-30T06:15:31;8.48;;;2.90;;
39196;SDS011;42889;51.112;13.772;2023-01-30T06:17:58;9.38;;;3.22;;
39196;SDS011;42889;51.112;13.772;2023-01-30T06:20:25;9.27;;;3.67;;
39196;SDS011;42889;51.112;13.772;2023-01-30T06:22:51;8.57;;;3.65;;
39196;SDS011;42889;51.112;13.772;2023-01-30T06:25:18;8.10;;;3.70;;
39196;SDS011;42889;51.112;13.772;2023-01-30T06:27:45;7.95;;;3.22;;
39196;SDS011;42889;51.112;13.772;2023-01-30T06:30:12;4.32;;;2.03;;
39196;SDS011;42889;51.112;13.772;2023-01-30T06:32:39;7.43;;;3.20;;
39196;SDS011;42889;51.112;13.772;2023-01-30T06:35:06;8.23;;;3.13;;
39196;SDS011;42889;51.112;13.772;2023-01-30T06:37:33;8.45;;;3.63;;
39196;SDS011;42889;51.112;13.772;2023-01-30T06:40:00;9.50;;;4.07;;
39196;SDS011;42889;51.112;13.772;2023-01-30T06:42:27;7.85;;;2.97;;
39196;SDS011;42889;51.112;13.772;2023-01-30T06:44:53;8.25;;;3.33;;
39196;SDS011;42889;51.112;13.772;2023-01-30T06:47:20;6.53;;;3.03;;
39196;SDS011;42889;51.112;13.772;2023-01-30T06:49:46;8.32;;;3.45;;
39196;SDS011;42889;51.112;13.772;2023-01-30T06:52:14;7.35;;;3.05;;
39196;SDS011;42889;51.112;13.772;2023-01-30T06:54:41;11.27;;;3.60;;
39196;SDS011;42889;51.112;13.772;2023-01-30T06:57:07;6.15;;;3.30;;
39196;SDS011;42889;51.112;13.772;2023-01-30T06:59:34;6.57;;;2.80;;
39196;SDS011;42889;51.112;13.772;2023-01-30T07:02:00;9.82;;;3.80;;
39196;SDS011;42889;51.112;13.772;2023-01-30T07:04:27;5.10;;;1.92;;
39196;SDS011;42889;51.112;13.772;2023-01-30T07:06:54;7.13;;;2.85;;
39196;SDS011;42889;51.112;13.772;2023-01-30T07:09:20;6.75;;;2.53;;
39196;SDS011;42889;51.112;13.772;2023-01-30T07:11:47;9.40;;;3.80;;
39196;SDS011;42889;51.112;13.772;2023-01-30T07:14:15;9.10;;;3.95;;
39196;SDS011;42889;51.112;13.772;2023-01-30T07:16:42;8.80;;;2.83;;
39196;SDS011;42889;51.112;13.772;2023-01-30T07:19:08;6.35;;;1.75;;
39196;SDS011;42889;51.112;13.772;2023-01-30T07:21:35;8.88;;;2.88;;
39196;SDS011;42889;51.112;13.772;2023-01-30T07:24:02;6.90;;;2.38;;
39196;SDS011;42889;51.112;13.772;2023-01-30T07:26:28;10.05;;;4.22;;
39196;SDS011;42889;51.112;13.772;2023-01-30T07:28:56;7.03;;;3.42;;
39196;SDS011;42889;51.112;13.772;2023-01-30T07:31:23;5.47;;;2.13;;
39196;SDS011;42889;51.112;13.772;2023-01-30T07:33:49;6.10;;;2.63;;
39196;SDS011;42889;51.112;13.772;2023-01-30T07:36:16;8.57;;;3.17;;
39196;SDS011;42889;51.112;13.772;2023-01-30T07:38:42;5.00;;;1.60;;
39196;SDS011;42889;51.112;13.772;2023-01-30T07:41:09;7.93;;;2.95;;
39196;SDS011;42889;51.112;13.772;2023-01-30T07:43:36;6.10;;;2.45;;
39196;SDS011;42889;51.112;13.772;2023-01-30T07:46:02;7.18;;;2.67;;
39196;SDS011;42889;51.112;13.772;2023-01-30T07:48:30;8.63;;;2.60;;
39196;SDS011;42889;51.112;13.772;2023-01-30T07:50:56;6.88;;;2.60;;
39196;SDS011;42889;51.112;13.772;2023-01-30T07:53:23;5.55;;;2.53;;
39196;SDS011;42889;51.112;13.772;2023-01-30T07:55:50;6.85;;;2.45;;
39196;SDS011;42889;51.112;13.772;2023-01-30T07:58:16;5.85;;;2.25;;
39196;SDS011;42889;51.112;13.772;2023-01-30T08:00:43;4.18;;;1.40;;
39196;SDS011;42889;51.112;13.772;2023-01-30T08:03:11;5.10;;;1.73;;
39196;SDS011;42889;51.112;13.772;2023-01-30T08:05:39;6.38;;;2.78;;
39196;SDS011;42889;51.112;13.772;2023-01-30T08:08:06;5.70;;;2.03;;
39196;SDS011;42889;51.112;13.772;2023-01-30T08:10:32;7.15;;;2.70;;
39196;SDS011;42889;51.112;13.772;2023-01-30T08:12:59;6.18;;;2.60;;
39196;SDS011;42889;51.112;13.772;2023-01-30T08:15:26;5.25;;;1.70;;
39196;SDS011;42889;51.112;13.772;2023-01-30T08:17:53;4.25;;;1.45;;
39196;SDS011;42889;51.112;13.772;2023-01-30T08:20:21;5.55;;;1.90;;
39196;SDS011;42889;51.112;13.772;2023-01-30T08:22:48;3.22;;;1.40;;
39196;SDS011;42889;51.112;13.772;2023-01-30T08:25:15;5.40;;;1.95;;
39196;SDS011;42889;51.112;13.772;2023-01-30T08:27:41;6.53;;;2.17;;
39196;SDS011;42889;51.112;13.772;2023-01-30T08:30:09;3.53;;;1.10;;
39196;SDS011;42889;51.112;13.772;2023-01-30T08:32:37;3.80;;;1.42;;
39196;SDS011;42889;51.112;13.772;2023-01-30T08:35:03;5.88;;;2.50;;
39196;SDS011;42889;51.112;13.772;2023-01-30T08:37:30;3.75;;;1.67;;
39196;SDS011;42889;51.112;13.772;2023-01-30T08:39:57;3.65;;;1.45;;
39196;SDS011;42889;51.112;13.772;2023-01-30T08:42:23;3.17;;;1.35;;
39196;SDS011;42889;51.112;13.772;2023-01-30T08:44:50;2.70;;;1.00;;
39196;SDS011;42889;51.112;13.772;2023-01-30T08:47:17;4.47;;;1.83;;
39196;SDS011;42889;51.112;13.772;2023-01-30T08:49:43;4.10;;;1.27;;
39196;SDS011;42889;51.112;13.772;2023-01-30T08:52:10;3.33;;;1.40;;
39196;SDS011;42889;51.112;13.772;2023-01-30T08:54:37;4.20;;;1.10;;
39196;SDS011;42889;51.112;13.772;2023-01-30T08:57:03;3.35;;;1.25;;
39196;SDS011;42889;51.112;13.772;2023-01-30T08:59:30;7.45;;;1.88;;
39196;SDS011;42889;51.112;13.772;2023-01-30T09:01:56;3.78;;;1.30;;
39196;SDS011;42889;51.112;13.772;2023-01-30T09:04:23;4.95;;;1.02;;
39196;SDS011;42889;51.112;13.772;2023-01-30T09:06:51;3.58;;;1.08;;
39196;SDS011;42889;51.112;13.772;2023-01-30T09:09:18;3.65;;;0.85;;
39196;SDS011;42889;51.112;13.772;2023-01-30T09:11:45;3.88;;;1.52;;
39196;SDS011;42889;51.112;13.772;2023-01-30T09:14:13;3.75;;;1.45;;
39196;SDS011;42889;51.112;13.772;2023-01-30T09:16:48;3.85;;;1.08;;
39196;SDS011;42889;51.112;13.772;2023-01-30T09:19:25;2.83;;;0.93;;
39196;SDS011;42889;51.112;13.772;2023-01-30T09:21:53;3.45;;;0.95;;
39196;SDS011;42889;51.112;13.772;2023-01-30T09:24:21;2.55;;;1.08;;
39196;SDS011;42889;51.112;13.772;2023-01-30T09:26:52;2.40;;;0.63;;
39196;SDS011;42889;51.112;13.772;2023-01-30T09:29:19;3.50;;;1.10;;
39196;SDS011;42889;51.112;13.772;2023-01-30T09:31:46;2.90;;;1.10;;
39196;SDS011;42889;51.112;13.772;2023-01-30T09:34:13;2.97;;;1.15;;
39196;SDS011;42889;51.112;13.772;2023-01-30T09:36:39;3.28;;;1.20;;
39196;SDS011;42889;51.112;13.772;2023-01-30T09:39:06;2.70;;;0.63;;
39196;SDS011;42889;51.112;13.772;2023-01-30T09:53:47;3.88;;;0.57;;
39196;SDS011;42889;51.112;13.772;2023-01-30T09:56:20;1.90;;;0.50;;
39196;SDS011;42889;51.112;13.772;2023-01-30T10:01:22;1.42;;;0.55;;
39196;SDS011;42889;51.112;13.772;2023-01-30T10:06:58;2.55;;;0.85;;
39196;SDS011;42889;51.112;13.772;2023-01-30T10:12:43;3.00;;;1.00;;
39196;SDS011;42889;51.112;13.772;2023-01-30T10:15:44;1.83;;;0.52;;
39196;SDS011;42889;51.112;13.772;2023-01-30T10:18:17;2.63;;;0.68;;
39196;SDS011;42889;51.112;13.772;2023-01-30T10:26:22;1.30;;;0.43;;
39196;SDS011;42889;51.112;13.772;2023-01-30T10:31:39;1.73;;;0.43;;
39196;SDS011;42889;51.112;13.772;2023-01-30T10:34:36;3.38;;;0.70;;
39196;SDS011;42889;51.112;13.772;2023-01-30T10:37:13;1.08;;;0.50;;
39196;SDS011;42889;51.112;13.772;2023-01-30T10:40:04;2.47;;;0.68;;
39196;SDS011;42889;51.112;13.772;2023-01-30T10:42:56;2.50;;;0.77;;
39196;SDS011;42889;51.112;13.772;2023-01-30T10:45:42;1.23;;;0.40;;
39196;SDS011;42889;51.112;13.772;2023-01-30T10:54:18;0.82;;;0.25;;
39196;SDS011;42889;51.112;13.772;2023-01-30T10:57:15;1.85;;;0.63;;
39196;SDS011;42889;51.112;13.772;2023-01-30T11:02:41;1.70;;;0.80;;
39196;SDS011;42889;51.112;13.772;2023-01-30T11:05:15;3.17;;;0.70;;
39196;SDS011;42889;51.112;13.772;2023-01-30T11:07:46;1.10;;;0.35;;
39196;SDS011;42889;51.112;13.772;2023-01-30T11:10:24;2.13;;;0.80;;
39196;SDS011;42889;51.112;13.772;2023-01-30T11:12:52;1.40;;;0.52;;
39196;SDS011;42889;51.112;13.772;2023-01-30T11:15:23;2.45;;;0.63;;
39196;SDS011;42889;51.112;13.772;2023-01-30T11:17:50;2.58;;;0.82;;
39196;SDS011;42889;51.112;13.772;2023-01-30T11:23:40;2.65;;;0.77;;
39196;SDS011;42889;51.112;13.772;2023-01-30T11:29:29;1.83;;;0.63;;
39196;SDS011;42889;51.112;13.772;2023-01-30T11:32:02;2.38;;;0.60;;
39196;SDS011;42889;51.112;13.772;2023-01-30T11:34:31;2.25;;;0.80;;
39196;SDS011;42889;51.112;13.772;2023-01-30T11:39:52;2.92;;;0.90;;
39196;SDS011;42889;51.112;13.772;2023-01-30T11:42:21;1.75;;;0.40;;
39196;SDS011;42889;51.112;13.772;2023-01-30T11:44:54;2.28;;;0.50;;
39196;SDS011;42889;51.112;13.772;2023-01-30T11:47:49;2.75;;;0.90;;
39196;SDS011;42889;51.112;13.772;2023-01-30T11:50:25;1.98;;;0.70;;
39196;SDS011;42889;51.112;13.772;2023-01-30T11:53:29;2.00;;;0.65;;
39196;SDS011;42889;51.112;13.772;2023-01-30T11:55:58;2.53;;;0.70;;
39196;SDS011;42889;51.112;13.772;2023-01-30T11:58:35;2.40;;;0.60;;
39196;SDS011;42889;51.112;13.772;2023-01-30T12:01:06;1.58;;;0.50;;
39196;SDS011;42889;51.112;13.772;2023-01-30T12:03:38;3.00;;;0.80;;
39196;SDS011;42889;51.112;13.772;2023-01-30T12:06:19;1.45;;;0.43;;
39196;SDS011;42889;51.112;13.772;2023-01-30T12:08:50;1.90;;;0.57;;
39196;SDS011;42889;51.112;13.772;2023-01-30T12:13:50;0.90;;;0.43;;
39196;SDS011;42889;51.112;13.772;2023-01-30T12:16:19;3.22;;;0.90;;
39196;SDS011;42889;51.112;13.772;2023-01-30T12:26:46;3.10;;;1.02;;
39196;SDS011;42889;51.112;13.772;2023-01-30T12:29:23;1.95;;;0.70;;
39196;SDS011;42889;51.112;13.772;2023-01-30T12:32:03;1.73;;;0.65;;
39196;SDS011;42889;51.112;13.772;2023-01-30T12:34:38;2.50;;;0.80;;
39196;SDS011;42889;51.112;13.772;2023-01-30T12:45:26;2.20;;;0.55;;
39196;SDS011;42889;51.112;13.772;2023-01-30T12:58:25;1.92;;;0.52;;
39196;SDS011;42889;51.112;13.772;2023-01-30T13:01:00;4.75;;;0.93;;
39196;SDS011;42889;51.112;13.772;2023-01-30T13:06:06;2.95;;;1.10;;
39196;SDS011;42889;51.112;13.772;2023-01-30T13:14:35;2.78;;;0.88;;
39196;SDS011;42889;51.112;13.772;2023-01-30T13:17:09;3.47;;;0.70;;
39196;SDS011;42889;51.112;13.772;2023-01-30T13:22:19;1.90;;;0.65;;
39196;SDS011;42889;51.112;13.772;2023-01-30T13:27:16;1.90;;;0.60;;
39196;SDS011;42889;51.112;13.772;2023-01-30T13:32:14;4.90;;;0.88;;
39196;SDS011;42889;51.112;13.772;2023-01-30T13:35:03;3.17;;;0.70;;
39196;SDS011;42889;51.112;13.772;2023-01-30T13:37:33;2.85;;;1.20;;
39196;SDS011;42889;51.112;13.772;2023-01-30T13:40:03;6.20;;;0.80;;
39196;SDS011;42889;51.112;13.772;2023-01-30T13:45:23;3.45;;;0.80;;
39196;SDS011;42889;51.112;13.772;2023-01-30T13:48:09;5.45;;;1.00;;
39196;SDS011;42889;51.112;13.772;2023-01-30T13:51:52;2.00;;;0.60;;
39196;SDS011;42889;51.112;13.772;2023-01-30T13:56:53;1.85;;;0.55;;
39196;SDS011;42889;51.112;13.772;2023-01-30T14:02:15;3.72;;;0.50;;
39196;SDS011;42889;51.112;13.772;2023-01-30T14:04:45;2.35;;;0.50;;
39196;SDS011;42889;51.112;13.772;2023-01-30T14:12:31;2.08;;;0.50;;
39196;SDS011;42889;51.112;13.772;2023-01-30T14:15:21;2.13;;;0.80;;
39196;SDS011;42889;51.112;13.772;2023-01-30T14:20:28;4.05;;;0.70;;
39196;SDS011;42889;51.112;13.772;2023-01-30T14:25:45;2.17;;;0.50;;
39196;SDS011;42889;51.112;13.772;2023-01-30T14:30:45;2.25;;;0.50;;
39196;SDS011;42889;51.112;13.772;2023-01-30T14:38:19;2.10;;;0.50;;
39196;SDS011;42889;51.112;13.772;2023-01-30T14:40:48;3.67;;;0.60;;
39196;SDS011;42889;51.112;13.772;2023-01-30T14:59:07;3.60;;;0.43;;
39196;SDS011;42889;51.112;13.772;2023-01-30T15:04:45;5.35;;;0.80;;
39196;SDS011;42889;51.112;13.772;2023-01-30T15:23:47;3.33;;;0.50;;
39196;SDS011;42889;51.112;13.772;2023-01-30T15:31:57;1.40;;;0.30;;
39196;SDS011;42889;51.112;13.772;2023-01-30T15:34:26;2.90;;;0.43;;
39196;SDS011;42889;51.112;13.772;2023-01-30T15:36:55;3.75;;;0.80;;
39196;SDS011;42889;51.112;13.772;2023-01-30T15:39:23;1.38;;;0.45;;
39196;SDS011;42889;51.112;13.772;2023-01-30T15:41:51;1.75;;;0.65;;
39196;SDS011;42889;51.112;13.772;2023-01-30T15:45:05;3.72;;;0.98;;
39196;SDS011;42889;51.112;13.772;2023-01-30T15:47:45;6.95;;;1.02;;
39196;SDS011;42889;51.112;13.772;2023-01-30T15:50:18;3.72;;;1.02;;
39196;SDS011;42889;51.112;13.772;2023-01-30T15:52:45;5.65;;;1.33;;
39196;SDS011;42889;51.112;13.772;2023-01-30T15:55:16;2.67;;;0.88;;
39196;SDS011;42889;51.112;13.772;2023-01-30T15:58:06;4.57;;;1.13;;
39196;SDS011;42889;51.112;13.772;2023-01-30T16:00:36;5.45;;;1.27;;
39196;SDS011;42889;51.112;13.772;2023-01-30T16:03:26;5.55;;;0.95;;
39196;SDS011;42889;51.112;13.772;2023-01-30T16:05:56;4.80;;;1.00;;
39196;SDS011;42889;51.112;13.772;2023-01-30T16:08:31;3.85;;;0.70;;
39196;SDS011;42889;51.112;13.772;2023-01-30T16:11:00;7.45;;;1.50;;
39196;SDS011;42889;51.112;13.772;2023-01-30T16:13:27;13.50;;;1.08;;
39196;SDS011;42889;51.112;13.772;2023-01-30T16:18:48;1.95;;;0.70;;
39196;SDS011;42889;51.112;13.772;2023-01-30T16:21:33;3.47;;;0.90;;
39196;SDS011;42889;51.112;13.772;2023-01-30T16:24:03;3.50;;;0.50;;
39196;SDS011;42889;51.112;13.772;2023-01-30T16:26:40;3.35;;;1.10;;
39196;SDS011;42889;51.112;13.772;2023-01-30T16:29:14;4.47;;;1.00;;
39196;SDS011;42889;51.112;13.772;2023-01-30T16:31:45;7.45;;;1.60;;
39196;SDS011;42889;51.112;13.772;2023-01-30T16:34:30;5.72;;;1.45;;
39196;SDS011;42889;51.112;13.772;2023-01-30T16:39:31;4.78;;;1.25;;
39196;SDS011;42889;51.112;13.772;2023-01-30T16:42:01;4.53;;;0.88;;
39196;SDS011;42889;51.112;13.772;2023-01-30T16:44:42;5.60;;;0.85;;
39196;SDS011;42889;51.112;13.772;2023-01-30T16:47:25;3.63;;;1.33;;
39196;SDS011;42889;51.112;13.772;2023-01-30T16:49:54;5.32;;;0.90;;
39196;SDS011;42889;51.112;13.772;2023-01-30T16:52:25;8.07;;;2.15;;
39196;SDS011;42889;51.112;13.772;2023-01-30T16:54:57;4.90;;;1.00;;
39196;SDS011;42889;51.112;13.772;2023-01-30T17:00:06;5.97;;;0.60;;
39196;SDS011;42889;51.112;13.772;2023-01-30T17:05:36;6.63;;;1.00;;
39196;SDS011;42889;51.112;13.772;2023-01-30T17:08:05;6.10;;;0.52;;
39196;SDS011;42889;51.112;13.772;2023-01-30T17:10:56;4.72;;;0.60;;
39196;SDS011;42889;51.112;13.772;2023-01-30T17:13:40;3.38;;;0.68;;
39196;SDS011;42889;51.112;13.772;2023-01-30T17:18:53;7.47;;;1.02;;
39196;SDS011;42889;51.112;13.772;2023-01-30T17:21:22;4.00;;;0.57;;
39196;SDS011;42889;51.112;13.772;2023-01-30T17:23:55;7.53;;;1.00;;
39196;SDS011;42889;51.112;13.772;2023-01-30T17:26:27;6.30;;;1.00;;
39196;SDS011;42889;51.112;13.772;2023-01-30T17:28:55;6.53;;;1.05;;
39196;SDS011;42889;51.112;13.772;2023-01-30T17:31:22;5.95;;;0.90;;
39196;SDS011;42889;51.112;13.772;2023-01-30T17:33:49;8.95;;;0.80;;
39196;SDS011;42889;51.112;13.772;2023-01-30T17:38:50;4.18;;;0.63;;
39196;SDS011;42889;51.112;13.772;2023-01-30T17:43:55;4.32;;;0.60;;
39196;SDS011;42889;51.112;13.772;2023-01-30T17:46:30;7.57;;;1.05;;
39196;SDS011;42889;51.112;13.772;2023-01-30T17:49:00;6.93;;;1.08;;
39196;SDS011;42889;51.112;13.772;2023-01-30T17:51:27;5.75;;;0.47;;
39196;SDS011;42889;51.112;13.772;2023-01-30T17:53:53;10.85;;;1.50;;
39196;SDS011;42889;51.112;13.772;2023-01-30T17:56:21;7.95;;;0.93;;
39196;SDS011;42889;51.112;13.772;2023-01-30T17:58:51;6.15;;;0.60;;
39196;SDS011;42889;51.112;13.772;2023-01-30T18:01:18;4.95;;;0.90;;
39196;SDS011;42889;51.112;13.772;2023-01-30T18:03:45;3.47;;;0.75;;
39196;SDS011;42889;51.112;13.772;2023-01-30T18:06:12;5.35;;;0.75;;
39196;SDS011;42889;51.112;13.772;2023-01-30T18:08:41;7.88;;;0.88;;
39196;SDS011;42889;51.112;13.772;2023-01-30T18:11:08;9.25;;;1.60;;
39196;SDS011;42889;51.112;13.772;2023-01-30T18:13:37;9.18;;;0.85;;
39196;SDS011;42889;51.112;13.772;2023-01-30T18:16:05;6.07;;;0.55;;
39196;SDS011;42889;51.112;13.772;2023-01-30T18:18:32;7.65;;;0.65;;
39196;SDS011;42889;51.112;13.772;2023-01-30T18:20:59;4.15;;;0.88;;
39196;SDS011;42889;51.112;13.772;2023-01-30T18:23:25;6.57;;;0.63;;